Lela Franco — WDI2504 — position and weather

sailwx.info

Track history (hours):
 
Tides and Currents Weather Stations Pressure Air Temp Water Temp Dewpoint Dewpoint Depression Visibility Wind Speed Wind Dir Waves Ship Positions

Lela Franco

Owner: Harley Marine Services, Inc, Seattle, WA. More information available from US FCC via Universal Licensing System and Coast Guard Vessel Documentation Center.

Last reported at 2017-Nov-24 14:33 UTC. Time now 2017-Nov-24 16:45 UTC.
Position N 33°43' W 118°15'.

Length 18 m; draft 3 m.

Type: Towing. MMSI: 366926730.

Date/timePositionNaut miles runAvg speedWind from/ knotsBaromVisibWave heightAir tempDewpointWater temp
2017-Nov-24 14:33N 33°43' W 118°15'010.6
2017-Nov-24 14:30N 33°43' W 118°15'3 2.3
2017-Nov-24 13:12N 33°46' W 118°17'0 1.5
2017-Nov-24 12:52N 33°45' W 118°16'2 4.6
2017-Nov-24 12:23N 33°43' W 118°16'1 2.3
2017-Nov-24 11:58N 33°43' W 118°15'1 2.3
2017-Nov-24 11:24N 33°44' W 118°16'0 0.0
2017-Nov-24 10:54N 33°44' W 118°16'0 0.8
2017-Nov-24 10:29N 33°43' W 118°16'3 1.1
2017-Nov-24 07:49N 33°46' W 118°13'0 0.5
2017-Nov-24 07:30N 33°46' W 118°13'0 1.0
2017-Nov-24 07:00N 33°46' W 118°13'  
2017-Nov-19 17:04N 33°43' W 118°15'3 0.6
2017-Nov-19 12:02N 33°46' W 118°13'0 0.4
2017-Nov-19 11:55N 33°46' W 118°13'1 0.2
2017-Nov-19 05:56N 33°45' W 118°12'1 0.5
2017-Nov-19 04:06N 33°45' W 118°13'0 1.9
2017-Nov-19 03:59N 33°45' W 118°13'3 1.0
2017-Nov-19 01:16N 33°44' W 118°16'1 3.0
2017-Nov-19 00:58N 33°43' W 118°16'2 1.3
2017-Nov-18 23:40N 33°42' W 118°14'2 1.4
2017-Nov-18 22:07N 33°43' W 118°16'4 6.7
2017-Nov-18 21:36N 33°45' W 118°12'0 0.3
2017-Nov-18 21:25N 33°45' W 118°12'0 0.0
2017-Nov-18 21:00N 33°45' W 118°12'5 0.1
2017-Nov-16 22:45N 33°41' W 118°16'2 7.5
2017-Nov-16 22:31N 33°40' W 118°17'4 7.6
2017-Nov-16 22:01N 33°38' W 118°21'4 7.7
2017-Nov-16 21:30N 33°35' W 118°25'4 7.9
2017-Nov-16 20:59N 33°33' W 118°29'4 7.7
2017-Nov-16 20:31N 33°31' W 118°33'5 6.7
2017-Nov-16 19:49N 33°28' W 118°36'3 7.5
2017-Nov-16 19:27N 33°26' W 118°34'2610.9
2017-Nov-16 17:01N 33°46' W 118°13'26246.6
2017-Nov-16 16:55N 33°26' W 118°33'26938.3
2017-Nov-16 16:53N 33°45' W 118°13'2666.5
2017-Nov-16 16:29N 33°28' W 118°36'3 6.4
2017-Nov-16 16:00N 33°30' W 118°34'4 7.6
2017-Nov-16 15:30N 33°33' W 118°30'4 7.7
2017-Nov-16 14:57N 33°35' W 118°26'3 7.7
2017-Nov-16 14:31N 33°37' W 118°23'944.9
2017-Nov-16 14:18N 33°44' W 118°16'619.5
2017-Nov-16 14:01N 33°39' W 118°19'861.1
2017-Nov-16 13:53N 33°45' W 118°13'410.7
2017-Nov-16 13:30N 33°41' W 118°16'4285.5
2017-Nov-16 13:29N 33°45' W 118°14'3 5.9
2017-Nov-16 13:00N 33°43' W 118°16'325.6
2017-Nov-16 12:53N 33°45' W 118°13'2 5.4
2017-Nov-16 12:29N 33°43' W 118°11'0 0.1
2017-Nov-16 12:01N 33°44' W 118°11'2 3.8
2017-Nov-16 11:30N 33°43' W 118°14'2 0.2
2017-Nov-15 23:42N 33°43' W 118°16'2 2.3
2017-Nov-15 22:48N 33°45' W 118°17'3 0.3
2017-Nov-15 14:01N 33°43' W 118°15'1 3.3
2017-Nov-15 13:51N 33°43' W 118°15'2 3.8
2017-Nov-15 13:14N 33°45' W 118°16'0 0.6
2017-Nov-15 12:58N 33°45' W 118°17'2 2.8
2017-Nov-15 12:23N 33°44' W 118°16'3 4.0
2017-Nov-15 11:42N 33°45' W 118°13'  
Track history (hours):
 
Tides and Currents Weather Stations Pressure Air Temp Water Temp Dewpoint Dewpoint Depression Visibility Wind Speed Wind Dir Waves Ship Positions

Lela Franco

Owner: Harley Marine Services, Inc, Seattle, WA. More information available from US FCC via Universal Licensing System and Coast Guard Vessel Documentation Center.

Last reported at 2017-Nov-24 14:33 UTC. Time now 2017-Nov-24 16:45 UTC.
Position N 33°43' W 118°15'.

Length 18 m; draft 3 m.

Type: Towing. MMSI: 366926730.

Date/timePositionNaut miles runAvg speedWind from/ knotsBaromVisibWave heightAir tempDewpointWater temp
2017-Nov-24 14:33N 33°43' W 118°15'010.6
2017-Nov-24 14:30N 33°43' W 118°15'3 2.3
2017-Nov-24 13:12N 33°46' W 118°17'0 1.5
2017-Nov-24 12:52N 33°45' W 118°16'2 4.6
2017-Nov-24 12:23N 33°43' W 118°16'1 2.3
2017-Nov-24 11:58N 33°43' W 118°15'1 2.3
2017-Nov-24 11:24N 33°44' W 118°16'0 0.0
2017-Nov-24 10:54N 33°44' W 118°16'0 0.8
2017-Nov-24 10:29N 33°43' W 118°16'3 1.1
2017-Nov-24 07:49N 33°46' W 118°13'0 0.5
2017-Nov-24 07:30N 33°46' W 118°13'0 1.0
2017-Nov-24 07:00N 33°46' W 118°13'  
2017-Nov-19 17:04N 33°43' W 118°15'3 0.6
2017-Nov-19 12:02N 33°46' W 118°13'0 0.4
2017-Nov-19 11:55N 33°46' W 118°13'1 0.2
2017-Nov-19 05:56N 33°45' W 118°12'1 0.5
2017-Nov-19 04:06N 33°45' W 118°13'0 1.9
2017-Nov-19 03:59N 33°45' W 118°13'3 1.0
2017-Nov-19 01:16N 33°44' W 118°16'1 3.0
2017-Nov-19 00:58N 33°43' W 118°16'2 1.3
2017-Nov-18 23:40N 33°42' W 118°14'2 1.4
2017-Nov-18 22:07N 33°43' W 118°16'4 6.7
2017-Nov-18 21:36N 33°45' W 118°12'0 0.3
2017-Nov-18 21:25N 33°45' W 118°12'0 0.0
2017-Nov-18 21:00N 33°45' W 118°12'5 0.1
2017-Nov-16 22:45N 33°41' W 118°16'2 7.5
2017-Nov-16 22:31N 33°40' W 118°17'4 7.6
2017-Nov-16 22:01N 33°38' W 118°21'4 7.7
2017-Nov-16 21:30N 33°35' W 118°25'4 7.9
2017-Nov-16 20:59N 33°33' W 118°29'4 7.7
2017-Nov-16 20:31N 33°31' W 118°33'5 6.7
2017-Nov-16 19:49N 33°28' W 118°36'3 7.5
2017-Nov-16 19:27N 33°26' W 118°34'2610.9
2017-Nov-16 17:01N 33°46' W 118°13'26246.6
2017-Nov-16 16:55N 33°26' W 118°33'26938.3
2017-Nov-16 16:53N 33°45' W 118°13'2666.5
2017-Nov-16 16:29N 33°28' W 118°36'3 6.4
2017-Nov-16 16:00N 33°30' W 118°34'4 7.6
2017-Nov-16 15:30N 33°33' W 118°30'4 7.7
2017-Nov-16 14:57N 33°35' W 118°26'3 7.7
2017-Nov-16 14:31N 33°37' W 118°23'944.9
2017-Nov-16 14:18N 33°44' W 118°16'619.5
2017-Nov-16 14:01N 33°39' W 118°19'861.1
2017-Nov-16 13:53N 33°45' W 118°13'410.7
2017-Nov-16 13:30N 33°41' W 118°16'4285.5
2017-Nov-16 13:29N 33°45' W 118°14'3 5.9
2017-Nov-16 13:00N 33°43' W 118°16'325.6
2017-Nov-16 12:53N 33°45' W 118°13'2 5.4
2017-Nov-16 12:29N 33°43' W 118°11'0 0.1
2017-Nov-16 12:01N 33°44' W 118°11'2 3.8
2017-Nov-16 11:30N 33°43' W 118°14'2 0.2
2017-Nov-15 23:42N 33°43' W 118°16'2 2.3
2017-Nov-15 22:48N 33°45' W 118°17'3 0.3
2017-Nov-15 14:01N 33°43' W 118°15'1 3.3
2017-Nov-15 13:51N 33°43' W 118°15'2 3.8
2017-Nov-15 13:14N 33°45' W 118°16'0 0.6
2017-Nov-15 12:58N 33°45' W 118°17'2 2.8
2017-Nov-15 12:23N 33°44' W 118°16'3 4.0
2017-Nov-15 11:42N 33°45' W 118°13'  

Dump ship's entire track history